Time;durP1;ratioP1;P1;durP2;ratioP2;P2;SDS_P1;SDS_P2;PMS_P1;PMS_P2;Temp;Humidity;BMP_temperature;BMP_pressure;BME280_temperature;BME280_humidity;BME280_pressure;Samples;Min_cycle;Max_cycle;Signal;HPM_P1;HPM_P2
2022/07/14 00:01:36;;;;;;;;;;;;;;;20.06;57.67;101494.16;5008484;28;20393;-79
2022/07/14 00:04:04;;;;;;;;;;;;;;;20.03;57.80;101497.81;5010220;28;20333;-79
2022/07/14 00:06:30;;;;;;;;;;;;;;;20.04;57.67;101498.69;5006937;28;19926;-79
2022/07/14 00:08:55;;;;;;;;;;;;;;;20.02;57.91;101498.78;5005302;28;19925;-79
2022/07/14 00:11:20;;;;;;;;;;;;;;;19.99;57.84;101498.91;5007428;28;19925;-79
2022/07/14 00:13:46;;;;;;;;;;;;;;;20.01;58.04;101493.56;5007343;28;19937;-79
2022/07/14 00:16:11;;;;;;;;;;;;;;;20.00;57.99;101499.75;5004849;28;19976;-79
2022/07/14 00:18:43;;;;;;;;;;;;;;;19.94;58.09;101498.25;5007263;28;20012;-79
2022/07/14 00:21:09;;;;;;;;;;;;;;;19.96;58.00;101498.22;5016155;28;20642;-79
2022/07/14 00:23:34;;;;;;;;;;;;;;;19.90;58.41;101502.00;5009666;28;19929;-79
2022/07/14 00:25:59;;;;;;;;;;;;;;;19.88;58.46;101493.28;5012988;28;19975;-79
2022/07/14 00:28:24;;;;;;;;;;;;;;;19.86;58.82;101491.66;5013881;28;19979;-79
2022/07/14 00:30:52;;;;;;;;;;;;;;;19.83;59.10;101491.81;5008067;28;20681;-79
2022/07/14 00:33:17;;;;;;;;;;;;;;;19.86;58.90;101494.28;5006397;28;20013;-79
2022/07/14 00:35:42;;;;;;;;;;;;;;;19.84;59.24;101489.09;5007155;28;20063;-79
2022/07/14 00:38:08;;;;;;;;;;;;;;;19.82;59.23;101490.94;5005752;28;19929;-79
2022/07/14 00:40:33;;;;;;;;;;;;;;;19.82;59.25;101488.31;5010690;28;19921;-79
2022/07/14 00:42:59;;;;;;;;;;;;;;;19.79;59.60;101496.34;5006184;28;19929;-79
2022/07/14 00:45:26;;;;;;;;;;;;;;;19.77;59.60;101492.94;5010375;28;19913;-79
2022/07/14 00:47:51;;;;;;;;;;;;;;;19.76;59.54;101499.13;5006725;28;19917;-79
2022/07/14 00:50:18;;;;;;;;;;;;;;;19.72;59.91;101494.97;5010429;28;20347;-79
2022/07/14 00:52:45;;;;;;;;;;;;;;;19.70;60.07;101497.66;5006472;28;20009;-79
2022/07/14 00:55:10;;;;;;;;;;;;;;;19.72;59.75;101495.81;5010740;28;20026;-79
2022/07/14 00:57:37;;;;;;;;;;;;;;;19.72;59.92;101497.59;5010350;28;20008;-79
2022/07/14 01:00:04;;;;;;;;;;;;;;;19.64;60.35;101494.47;5023198;28;20392;-79
2022/07/14 01:02:29;;;;;;;;;;;;;;;19.64;60.26;101486.56;5004699;28;19948;-79
2022/07/14 01:04:55;;;;;;;;;;;;;;;19.57;60.57;101488.63;5003606;28;20456;-79
2022/07/14 01:07:20;;;;;;;;;;;;;;;19.62;60.44;101480.50;5007022;28;19918;-79
2022/07/14 01:09:46;;;;;;;;;;;;;;;19.54;60.56;101486.13;5021037;28;19925;-79
2022/07/14 01:12:11;;;;;;;;;;;;;;;19.52;60.86;101490.59;5012183;28;20373;-79
2022/07/14 01:14:37;;;;;;;;;;;;;;;19.49;61.00;101489.91;5009789;28;19936;-79
2022/07/14 01:17:03;;;;;;;;;;;;;;;19.52;60.66;101487.16;5011372;28;19960;-79
2022/07/14 01:19:29;;;;;;;;;;;;;;;19.50;60.86;101489.84;5012950;28;20646;-78
2022/07/14 01:21:54;;;;;;;;;;;;;;;19.52;60.82;101493.25;5013711;28;19943;-79
2022/07/14 01:24:20;;;;;;;;;;;;;;;19.50;60.98;101491.59;5013779;28;19921;-79
2022/07/14 01:26:46;;;;;;;;;;;;;;;19.48;61.08;101486.44;5010416;28;19921;-79
2022/07/14 01:29:11;;;;;;;;;;;;;;;19.47;61.03;101491.75;5009273;28;19921;-79
2022/07/14 01:31:37;;;;;;;;;;;;;;;19.44;61.10;101487.47;5008830;28;19944;-79
2022/07/14 01:34:02;;;;;;;;;;;;;;;19.39;61.63;101486.00;5009702;28;19925;-79
2022/07/14 01:36:27;;;;;;;;;;;;;;;19.45;61.06;101485.72;5011226;28;19917;-79
2022/07/14 01:38:53;;;;;;;;;;;;;;;19.44;61.14;101478.72;5011254;28;19929;-79
2022/07/14 01:41:20;;;;;;;;;;;;;;;19.43;61.29;101474.41;5010544;28;19925;-79
2022/07/14 01:43:45;;;;;;;;;;;;;;;19.37;61.70;101475.53;5011345;28;20365;-79
2022/07/14 01:46:10;;;;;;;;;;;;;;;19.43;61.42;101479.66;5009863;28;19929;-79
2022/07/14 01:48:36;;;;;;;;;;;;;;;19.34;61.62;101485.34;5010346;28;19921;-79
2022/07/14 01:51:01;;;;;;;;;;;;;;;19.41;61.26;101484.13;5009400;28;19952;-79
2022/07/14 01:53:27;;;;;;;;;;;;;;;19.35;61.88;101484.41;5010855;28;19933;-79
2022/07/14 01:55:52;;;;;;;;;;;;;;;19.36;61.66;101478.22;5008696;28;19926;-79
2022/07/14 01:58:18;;;;;;;;;;;;;;;19.29;62.14;101480.28;5004842;28;20029;-79
2022/07/14 02:00:43;;;;;;;;;;;;;;;19.26;62.64;101477.75;5008558;28;19921;-79
2022/07/14 02:03:09;;;;;;;;;;;;;;;19.32;62.26;101481.91;5010247;28;19925;-79
2022/07/14 02:05:34;;;;;;;;;;;;;;;19.34;62.17;101488.00;5010246;28;19918;-79
2022/07/14 02:07:59;;;;;;;;;;;;;;;19.25;62.65;101487.44;4992253;28;19925;-79
2022/07/14 02:13:08;;;;;;;;;;;;;;;19.25;62.17;101495.34;5010300;28;19952;-79
2022/07/14 02:15:34;;;;;;;;;;;;;;;19.26;62.38;101488.28;5009522;28;19918;-79
2022/07/14 02:17:59;;;;;;;;;;;;;;;19.21;62.66;101487.66;5009842;28;19925;-79
2022/07/14 02:20:25;;;;;;;;;;;;;;;19.24;62.76;101492.78;5006147;28;19921;-80
2022/07/14 02:22:50;;;;;;;;;;;;;;;19.19;63.37;101492.97;5009184;28;19921;-79
2022/07/14 02:25:16;;;;;;;;;;;;;;;19.19;63.93;101492.16;5009167;28;19921;-79
2022/07/14 02:27:41;;;;;;;;;;;;;;;19.19;63.85;101497.41;5003882;28;20001;-80
2022/07/14 02:30:07;;;;;;;;;;;;;;;19.22;63.58;101489.38;5009859;28;19929;-79
2022/07/14 02:32:32;;;;;;;;;;;;;;;19.15;63.86;101480.88;5006482;28;19917;-79
2022/07/14 02:34:58;;;;;;;;;;;;;;;19.13;64.19;101485.34;5008377;28;19956;-79
2022/07/14 02:37:23;;;;;;;;;;;;;;;19.15;63.99;101477.41;5006707;28;20480;-79
2022/07/14 02:39:49;;;;;;;;;;;;;;;19.08;64.68;101476.81;5007044;28;19922;-79
2022/07/14 02:42:14;;;;;;;;;;;;;;;19.03;64.77;101473.53;5008750;28;20317;-79
2022/07/14 02:44:39;;;;;;;;;;;;;;;18.99;64.95;101473.72;5008375;28;19932;-79
2022/07/14 02:47:05;;;;;;;;;;;;;;;18.94;65.00;101478.34;5009037;28;19917;-79
2022/07/14 02:49:30;;;;;;;;;;;;;;;18.94;65.45;101467.81;5006046;28;19925;-79
2022/07/14 02:51:55;;;;;;;;;;;;;;;18.96;64.99;101471.22;5008035;28;20553;-79
2022/07/14 02:54:21;;;;;;;;;;;;;;;18.93;65.41;101472.22;5007244;28;19921;-79
2022/07/14 02:56:46;;;;;;;;;;;;;;;18.91;65.56;101463.56;5005983;28;19943;-79
2022/07/14 02:59:12;;;;;;;;;;;;;;;18.89;65.94;101467.19;5007928;28;20312;-79
2022/07/14 03:01:38;;;;;;;;;;;;;;;18.87;66.02;101463.78;5009607;28;19928;-79
2022/07/14 03:04:03;;;;;;;;;;;;;;;18.85;66.10;101466.44;5007209;28;19925;-79
2022/07/14 03:06:28;;;;;;;;;;;;;;;18.84;66.05;101466.53;5009638;28;19924;-79
2022/07/14 03:08:54;;;;;;;;;;;;;;;18.86;65.89;101481.34;5007188;28;20316;-79
2022/07/14 03:11:19;;;;;;;;;;;;;;;18.89;65.34;101482.97;5003629;28;19933;-80
2022/07/14 03:13:44;;;;;;;;;;;;;;;18.82;65.96;101487.66;5008720;28;19928;-79
2022/07/14 03:16:10;;;;;;;;;;;;;;;18.89;65.30;101475.94;5019000;28;20392;-79
2022/07/14 03:18:41;;;;;;;;;;;;;;;18.89;65.18;101482.97;5011991;28;19924;-80
2022/07/14 03:21:11;;;;;;;;;;;;;;;18.74;65.93;101496.81;5016126;28;19925;-79
2022/07/14 03:23:36;;;;;;;;;;;;;;;18.64;66.35;101497.19;5011713;28;20500;-79
2022/07/14 03:26:02;;;;;;;;;;;;;;;18.67;66.17;101491.81;5014296;28;19917;-79
2022/07/14 03:28:28;;;;;;;;;;;;;;;18.66;66.36;101490.09;5006946;28;19921;-79
2022/07/14 03:30:57;;;;;;;;;;;;;;;18.66;66.10;101484.81;5005142;28;19925;-79
2022/07/14 03:33:25;;;;;;;;;;;;;;;18.55;66.22;101484.44;5000175;28;19953;-79
2022/07/14 03:35:51;;;;;;;;;;;;;;;18.69;65.74;101479.41;5014647;28;19926;-79
2022/07/14 03:38:17;;;;;;;;;;;;;;;18.68;65.64;101483.00;5006557;28;19928;-79
2022/07/14 03:40:42;;;;;;;;;;;;;;;18.62;66.00;101482.41;5005172;28;19925;-79
2022/07/14 03:43:07;;;;;;;;;;;;;;;18.62;66.34;101482.41;5007077;28;19960;-79
2022/07/14 03:45:33;;;;;;;;;;;;;;;18.57;66.24;101476.50;5007112;28;20292;-79
2022/07/14 03:47:58;;;;;;;;;;;;;;;18.51;66.51;101474.94;5007313;28;20016;-80
2022/07/14 03:50:24;;;;;;;;;;;;;;;18.45;66.85;101466.44;5005965;28;19929;-79
2022/07/14 03:52:49;;;;;;;;;;;;;;;18.48;66.57;101467.19;5006738;28;19929;-79
2022/07/14 03:55:14;;;;;;;;;;;;;;;18.52;66.60;101455.63;5004957;28;20368;-79
2022/07/14 03:57:39;;;;;;;;;;;;;;;18.53;66.57;101459.97;5005782;28;19918;-79
2022/07/14 04:00:06;;;;;;;;;;;;;;;18.58;66.00;101457.13;5008406;28;20343;-79
2022/07/14 04:02:31;;;;;;;;;;;;;;;18.47;66.40;101447.06;5008370;28;19925;-79
2022/07/14 04:04:56;;;;;;;;;;;;;;;18.51;66.56;101448.63;5008666;28;19948;-79
2022/07/14 04:07:22;;;;;;;;;;;;;;;18.59;66.13;101457.06;5006608;28;20540;-79
2022/07/14 04:09:49;;;;;;;;;;;;;;;18.60;66.08;101457.94;5008200;28;20003;-79
2022/07/14 04:12:15;;;;;;;;;;;;;;;18.54;66.70;101452.94;5006514;28;19921;-79
2022/07/14 04:14:40;;;;;;;;;;;;;;;18.52;66.97;101465.28;5007247;28;19918;-79
2022/07/14 04:17:05;;;;;;;;;;;;;;;18.57;66.94;101464.16;5004976;28;19928;-79
2022/07/14 04:19:31;;;;;;;;;;;;;;;18.61;66.97;101462.25;5002801;28;19929;-79
2022/07/14 04:21:56;;;;;;;;;;;;;;;18.61;66.25;101457.84;5001982;28;20232;-79
2022/07/14 04:24:21;;;;;;;;;;;;;;;18.63;65.92;101463.03;5005727;28;19929;-79
2022/07/14 04:26:47;;;;;;;;;;;;;;;18.55;66.23;101458.13;5005352;28;20303;-79
2022/07/14 04:29:12;;;;;;;;;;;;;;;18.43;66.51;101450.72;4990327;28;19917;-79
2022/07/14 04:31:37;;;;;;;;;;;;;;;18.61;65.93;101451.72;4985272;28;19961;-79
2022/07/14 04:34:03;;;;;;;;;;;;;;;18.54;66.21;101451.13;4985106;28;20384;-79
2022/07/14 04:36:29;;;;;;;;;;;;;;;18.53;66.10;101461.75;4981567;28;19929;-79
2022/07/14 04:38:56;;;;;;;;;;;;;;;18.52;66.20;101462.66;5002486;28;19917;-79
2022/07/14 04:41:22;;;;;;;;;;;;;;;18.53;66.07;101453.84;5008223;28;19921;-80
2022/07/14 04:43:47;;;;;;;;;;;;;;;18.42;66.53;101464.78;5006875;28;19928;-79
2022/07/14 04:46:13;;;;;;;;;;;;;;;18.55;66.19;101465.16;5004306;28;19926;-79
2022/07/14 04:54:06;;;;;;;;;;;;;;;18.37;66.72;101485.16;5007839;28;19940;-79
2022/07/14 04:56:31;;;;;;;;;;;;;;;18.33;66.89;101474.84;5009223;28;19926;-79
2022/07/14 04:58:57;;;;;;;;;;;;;;;18.33;66.83;101477.50;5008571;28;19921;-79
2022/07/14 05:01:22;;;;;;;;;;;;;;;18.38;66.67;101471.09;5008399;28;19925;-79
2022/07/14 05:03:47;;;;;;;;;;;;;;;18.45;66.49;101474.34;4995087;28;19929;-78
2022/07/14 05:06:13;;;;;;;;;;;;;;;18.47;66.18;101481.28;5003830;28;20012;-79
2022/07/14 05:08:38;;;;;;;;;;;;;;;18.50;66.09;101477.66;4990497;28;20308;-79
2022/07/14 05:11:04;;;;;;;;;;;;;;;18.49;66.26;101481.19;4986028;28;19965;-79
2022/07/14 05:13:30;;;;;;;;;;;;;;;18.35;66.44;101471.25;4985024;28;19925;-79
2022/07/14 05:15:55;;;;;;;;;;;;;;;18.41;66.42;101475.38;4985827;28;20369;-79
2022/07/14 05:18:20;;;;;;;;;;;;;;;18.40;66.32;101473.66;4985777;28;20421;-79
2022/07/14 05:20:45;;;;;;;;;;;;;;;18.39;66.40;101474.59;4983223;28;19930;-79
2022/07/14 05:23:11;;;;;;;;;;;;;;;18.44;66.55;101470.84;4983829;28;19925;-79
2022/07/14 05:25:37;;;;;;;;;;;;;;;18.48;66.67;101474.25;4982048;28;20377;-79
2022/07/14 05:28:03;;;;;;;;;;;;;;;18.50;66.10;101480.28;4986846;28;20015;-79
2022/07/14 05:30:28;;;;;;;;;;;;;;;18.36;66.44;101480.81;4982224;28;19992;-79
2022/07/14 05:32:56;;;;;;;;;;;;;;;18.44;66.54;101481.38;4981545;28;20385;-79
2022/07/14 05:35:21;;;;;;;;;;;;;;;18.50;66.43;101469.75;4987221;28;19918;-79
2022/07/14 05:37:46;;;;;;;;;;;;;;;18.48;66.47;101471.63;4994373;28;19933;-79
2022/07/14 05:40:12;;;;;;;;;;;;;;;18.44;66.08;101459.47;5007994;28;19945;-79
2022/07/14 05:42:37;;;;;;;;;;;;;;;18.42;66.13;101456.06;5005069;28;20023;-78
2022/07/14 05:45:02;;;;;;;;;;;;;;;18.46;65.89;101470.81;5003881;28;20451;-79
2022/07/14 05:47:28;;;;;;;;;;;;;;;18.45;66.03;101479.59;5001057;28;19965;-79
2022/07/14 05:49:53;;;;;;;;;;;;;;;18.42;66.23;101477.94;5006580;28;20082;-78
2022/07/14 05:52:18;;;;;;;;;;;;;;;18.43;65.96;101470.91;5006079;28;19929;-79
2022/07/14 05:54:44;;;;;;;;;;;;;;;18.47;65.83;101464.63;5007250;28;19927;-78
2022/07/14 05:57:09;;;;;;;;;;;;;;;18.47;65.53;101485.69;5009875;28;19956;-77
2022/07/14 05:59:35;;;;;;;;;;;;;;;18.35;66.09;101471.25;5017370;28;19929;-77
2022/07/14 06:02:00;;;;;;;;;;;;;;;18.32;66.54;101463.47;5010489;28;19922;-77
2022/07/14 06:04:26;;;;;;;;;;;;;;;18.39;66.31;101461.44;5000027;28;19933;-76
2022/07/14 06:06:51;;;;;;;;;;;;;;;18.44;66.65;101457.69;5007486;28;19933;-77
2022/07/14 06:09:17;;;;;;;;;;;;;;;18.52;67.33;101465.28;5007432;28;19956;-77
2022/07/14 06:11:44;;;;;;;;;;;;;;;18.49;66.24;101468.91;5011180;28;20024;-79
2022/07/14 06:14:09;;;;;;;;;;;;;;;18.51;66.19;101474.94;5007745;28;19925;-79
2022/07/14 06:16:34;;;;;;;;;;;;;;;18.41;66.23;101476.25;5002360;28;21470;-79
2022/07/14 06:19:00;;;;;;;;;;;;;;;18.48;66.24;101475.06;5007935;28;20380;-79
2022/07/14 06:21:25;;;;;;;;;;;;;;;18.39;66.52;101480.69;5010381;28;19922;-79
2022/07/14 06:23:51;;;;;;;;;;;;;;;18.38;66.29;101480.78;5010656;28;19926;-79
2022/07/14 06:26:16;;;;;;;;;;;;;;;18.29;66.59;101479.38;5009240;28;19921;-79
2022/07/14 06:28:41;;;;;;;;;;;;;;;18.42;66.28;101477.94;5008107;28;20039;-79
2022/07/14 06:31:07;;;;;;;;;;;;;;;18.52;65.54;101481.06;5006095;28;20361;-79
2022/07/14 06:33:32;;;;;;;;;;;;;;;18.49;65.99;101482.06;5005626;28;20016;-80
2022/07/14 06:35:58;;;;;;;;;;;;;;;18.51;66.16;101479.38;5001760;28;19929;-79
2022/07/14 06:38:23;;;;;;;;;;;;;;;18.47;66.08;101491.81;5001084;28;20367;-79
2022/07/14 06:40:48;;;;;;;;;;;;;;;18.37;66.42;101487.81;5005869;28;19972;-77
2022/07/14 06:43:14;;;;;;;;;;;;;;;18.36;66.68;101485.25;5008800;28;20008;-76
2022/07/14 06:45:39;;;;;;;;;;;;;;;18.46;66.40;101491.84;5012733;28;19925;-77
2022/07/14 06:48:05;;;;;;;;;;;;;;;18.54;65.85;101492.41;5006162;28;19925;-77
2022/07/14 06:50:31;;;;;;;;;;;;;;;18.45;66.41;101503.28;5004630;28;19967;-77
2022/07/14 06:52:56;;;;;;;;;;;;;;;18.29;66.85;101499.56;5005341;28;20215;-77
2022/07/14 06:55:21;;;;;;;;;;;;;;;18.37;66.63;101493.06;5006132;28;19952;-77
2022/07/14 06:57:46;;;;;;;;;;;;;;;18.40;66.66;101486.81;5003970;28;19921;-77
2022/07/14 07:00:12;;;;;;;;;;;;;;;18.34;66.96;101487.94;5011386;28;19925;-77
2022/07/14 07:02:37;;;;;;;;;;;;;;;18.39;66.92;101485.13;5006947;28;19960;-77
2022/07/14 07:07:50;;;;;;;;;;;;;;;18.44;67.78;101484.00;5007209;28;19956;-77
2022/07/14 07:10:16;;;;;;;;;;;;;;;18.51;68.04;101476.75;5010345;28;19933;-77
2022/07/14 07:12:41;;;;;;;;;;;;;;;18.56;67.66;101482.66;5005371;28;19917;-77
2022/07/14 07:15:07;;;;;;;;;;;;;;;18.54;67.46;101487.97;5006768;28;19921;-77
2022/07/14 07:17:32;;;;;;;;;;;;;;;18.62;67.44;101492.91;5004812;28;19926;-77
2022/07/14 07:19:57;;;;;;;;;;;;;;;18.64;67.23;101489.31;5010960;28;19932;-77
2022/07/14 07:22:23;;;;;;;;;;;;;;;18.67;67.56;101504.97;5005716;28;19921;-77
2022/07/14 07:24:48;;;;;;;;;;;;;;;18.74;66.86;101497.66;5008294;28;20304;-77
2022/07/14 07:27:13;;;;;;;;;;;;;;;18.56;67.55;101501.06;5008091;28;19925;-77
2022/07/14 07:29:39;;;;;;;;;;;;;;;18.56;67.28;101496.69;4999331;28;20041;-77
2022/07/14 07:32:04;;;;;;;;;;;;;;;18.53;67.07;101486.28;5006898;28;20031;-77
2022/07/14 07:34:30;;;;;;;;;;;;;;;18.62;67.09;101488.53;4996895;28;19932;-77
2022/07/14 07:36:55;;;;;;;;;;;;;;;18.60;67.42;101490.34;5004069;28;20396;-77
2022/07/14 07:39:20;;;;;;;;;;;;;;;18.30;68.07;101502.16;5006768;28;19954;-77
2022/07/14 07:41:46;;;;;;;;;;;;;;;18.58;67.34;101504.50;5005443;28;20343;-77
2022/07/14 07:44:11;;;;;;;;;;;;;;;18.64;67.08;101498.97;5003417;28;20470;-77
2022/07/14 07:46:36;;;;;;;;;;;;;;;18.73;66.70;101497.72;5003784;28;20352;-77
2022/07/14 07:49:02;;;;;;;;;;;;;;;18.74;67.10;101496.81;5005048;28;19925;-77
2022/07/14 07:51:27;;;;;;;;;;;;;;;18.79;67.09;101494.81;5010511;28;19979;-77
2022/07/14 07:53:53;;;;;;;;;;;;;;;18.64;66.95;101491.94;5008016;28;19926;-77
2022/07/14 07:56:18;;;;;;;;;;;;;;;18.68;66.87;101484.75;5003218;28;20024;-77
2022/07/14 07:58:43;;;;;;;;;;;;;;;18.74;66.38;101481.88;5005854;28;19935;-77
2022/07/14 08:01:09;;;;;;;;;;;;;;;18.72;66.83;101481.06;5005587;28;19928;-77
2022/07/14 08:03:34;;;;;;;;;;;;;;;18.72;66.96;101483.69;5006890;28;19921;-77
2022/07/14 08:05:59;;;;;;;;;;;;;;;18.69;66.84;101483.81;5006056;28;19932;-77
2022/07/14 08:08:25;;;;;;;;;;;;;;;18.77;67.34;101484.38;5010869;28;20483;-77
2022/07/14 08:10:50;;;;;;;;;;;;;;;18.77;67.25;101480.88;5002633;28;19930;-77
2022/07/14 08:13:15;;;;;;;;;;;;;;;18.72;67.51;101477.59;5007602;28;19921;-77
2022/07/14 08:15:41;;;;;;;;;;;;;;;18.73;67.68;101487.19;5013303;28;19926;-77
2022/07/14 08:18:06;;;;;;;;;;;;;;;18.69;66.39;101489.09;5004990;28;20009;-77
2022/07/14 08:20:32;;;;;;;;;;;;;;;18.77;66.72;101483.50;5002864;28;19930;-77
2022/07/14 08:22:58;;;;;;;;;;;;;;;18.80;65.68;101475.47;5003014;28;19937;-77
2022/07/14 08:25:24;;;;;;;;;;;;;;;18.80;65.39;101484.25;5001838;28;19932;-77
2022/07/14 08:27:49;;;;;;;;;;;;;;;18.80;65.22;101493.91;5010566;28;19921;-77
2022/07/14 08:30:15;;;;;;;;;;;;;;;18.91;65.60;101489.00;4994292;28;19929;-77
2022/07/14 08:32:47;;;;;;;;;;;;;;;18.90;64.81;101467.09;5002419;28;20470;-77
2022/07/14 08:35:16;;;;;;;;;;;;;;;18.96;64.31;101461.56;5004477;28;20055;-77
2022/07/14 08:37:41;;;;;;;;;;;;;;;18.91;63.19;101449.53;5001565;28;19921;-77
2022/07/14 08:40:08;;;;;;;;;;;;;;;18.90;63.34;101453.94;5003139;28;20385;-76
2022/07/14 08:42:34;;;;;;;;;;;;;;;18.93;62.61;101464.31;5002768;28;20388;-76
2022/07/14 08:45:04;;;;;;;;;;;;;;;18.96;62.14;101456.28;5000998;28;20329;-76
2022/07/14 08:47:30;;;;;;;;;;;;;;;19.01;59.79;101456.97;5002433;28;19929;-76
2022/07/14 08:49:56;;;;;;;;;;;;;;;19.08;60.51;101445.22;5001722;28;19936;-76
2022/07/14 08:52:22;;;;;;;;;;;;;;;19.15;60.68;101445.78;5006029;28;19950;-76
2022/07/14 08:54:47;;;;;;;;;;;;;;;19.07;59.28;101446.16;5005274;28;19967;-77
2022/07/14 08:57:13;;;;;;;;;;;;;;;19.06;58.84;101444.44;4999141;28;19918;-78
2022/07/14 08:59:38;;;;;;;;;;;;;;;19.09;58.52;101443.44;5001609;28;19973;-78
2022/07/14 09:02:04;;;;;;;;;;;;;;;19.12;58.88;101443.28;5009239;28;19925;-78
2022/07/14 09:04:29;;;;;;;;;;;;;;;19.07;57.12;101432.13;5007063;28;19949;-78
2022/07/14 09:06:55;;;;;;;;;;;;;;;19.18;58.45;101430.72;4998145;28;19926;-78
2022/07/14 09:09:22;;;;;;;;;;;;;;;19.28;58.06;101430.28;5003465;28;19929;-78
2022/07/14 09:11:49;;;;;;;;;;;;;;;19.26;57.70;101425.06;5004778;28;20315;-77
2022/07/14 09:14:14;;;;;;;;;;;;;;;19.33;58.20;101428.31;5007462;28;19922;-77
2022/07/14 09:16:39;;;;;;;;;;;;;;;19.40;58.44;101417.41;5005472;28;19932;-77
2022/07/14 09:19:09;;;;;;;;;;;;;;;19.42;57.49;101412.94;5000819;28;20314;-77
2022/07/14 09:21:37;;;;;;;;;;;;;;;19.38;56.66;101407.88;5002289;28;19917;-77
2022/07/14 09:24:06;;;;;;;;;;;;;;;19.35;57.07;101410.63;5004600;28;19921;-77
2022/07/14 09:26:33;;;;;;;;;;;;;;;19.42;56.14;101407.66;5001403;28;19944;-77
2022/07/14 09:28:59;;;;;;;;;;;;;;;19.51;56.62;101406.38;5005251;28;19967;-77
2022/07/14 09:31:25;;;;;;;;;;;;;;;19.49;55.26;101406.41;5007973;28;19929;-77
2022/07/14 09:33:51;;;;;;;;;;;;;;;19.47;53.72;101407.44;5014013;28;19918;-77
2022/07/14 09:36:22;;;;;;;;;;;;;;;19.44;53.28;101416.34;5010636;28;19914;-77
2022/07/14 09:38:48;;;;;;;;;;;;;;;19.49;53.41;101414.31;5008128;28;19922;-77
2022/07/14 09:41:14;;;;;;;;;;;;;;;19.51;53.93;101406.38;5002703;28;20017;-77
2022/07/14 09:43:39;;;;;;;;;;;;;;;19.47;52.93;101403.00;5005201;28;20456;-78
2022/07/14 09:46:05;;;;;;;;;;;;;;;19.51;53.58;101409.00;5012437;28;19936;-77
2022/07/14 09:48:30;;;;;;;;;;;;;;;19.53;53.24;101409.78;5010380;28;19926;-77
2022/07/14 09:51:03;;;;;;;;;;;;;;;19.55;52.15;101416.66;5015379;28;20304;-77
2022/07/14 09:53:31;;;;;;;;;;;;;;;19.43;52.90;101414.63;5012689;28;19929;-77
2022/07/14 09:55:58;;;;;;;;;;;;;;;19.45;53.56;101418.06;5007697;28;20381;-77
2022/07/14 09:58:24;;;;;;;;;;;;;;;19.54;52.16;101416.75;5014709;28;19921;-77
2022/07/14 10:00:55;;;;;;;;;;;;;;;19.57;51.80;101421.88;5010162;28;19917;-77
2022/07/14 10:03:21;;;;;;;;;;;;;;;19.58;50.52;101418.34;5002513;28;19925;-77
2022/07/14 10:05:48;;;;;;;;;;;;;;;19.58;48.92;101418.34;5005942;28;19921;-77
2022/07/14 10:08:15;;;;;;;;;;;;;;;19.58;49.13;101428.88;5009705;28;19922;-77
2022/07/14 10:10:40;;;;;;;;;;;;;;;19.66;49.57;101421.44;5009215;28;19929;-77
2022/07/14 10:13:06;;;;;;;;;;;;;;;19.71;49.33;101422.94;5006598;28;19926;-77
2022/07/14 10:15:31;;;;;;;;;;;;;;;19.76;49.27;101420.06;5009668;28;20012;-77
2022/07/14 10:17:59;;;;;;;;;;;;;;;19.67;49.10;101423.13;5008904;28;19929;-77
2022/07/14 10:20:25;;;;;;;;;;;;;;;19.77;49.54;101424.41;5008702;28;20024;-77
2022/07/14 10:22:53;;;;;;;;;;;;;;;19.78;49.92;101426.13;5009511;28;19932;-77
2022/07/14 10:25:19;;;;;;;;;;;;;;;19.82;49.51;101421.56;5008293;28;19929;-77
2022/07/14 10:27:46;;;;;;;;;;;;;;;19.85;48.79;101414.31;4998228;28;19922;-77
2022/07/14 10:30:11;;;;;;;;;;;;;;;19.84;49.39;101411.78;5008984;28;20304;-77
2022/07/14 10:32:50;;;;;;;;;;;;;;;19.88;48.19;101411.53;5010427;28;19925;-77
2022/07/14 10:35:25;;;;;;;;;;;;;;;19.96;45.64;101419.09;5003198;28;19925;-77
2022/07/14 10:37:51;;;;;;;;;;;;;;;20.02;44.60;101411.75;5016164;28;20431;-77
2022/07/14 10:40:34;;;;;;;;;;;;;;;20.01;44.25;101404.75;5015447;28;19925;-77
2022/07/14 10:43:05;;;;;;;;;;;;;;;20.11;44.72;101398.13;5007329;28;19928;-77
2022/07/14 10:45:31;;;;;;;;;;;;;;;20.11;44.42;101395.47;5007955;28;19925;-76
2022/07/14 10:47:56;;;;;;;;;;;;;;;20.20;44.74;101396.81;5005841;28;19930;-76
2022/07/14 10:50:23;;;;;;;;;;;;;;;20.18;43.22;101402.13;5003196;28;19930;-76
2022/07/14 10:52:54;;;;;;;;;;;;;;;20.22;43.66;101408.97;5005179;28;19929;-76
2022/07/14 10:55:23;;;;;;;;;;;;;;;20.06;44.13;101405.34;5005262;28;19933;-76
2022/07/14 10:58:00;;;;;;;;;;;;;;;20.10;43.71;101398.19;5007926;28;19924;-76
2022/07/14 11:00:41;;;;;;;;;;;;;;;20.12;43.17;101407.72;4997543;28;19914;-75
2022/07/14 11:03:25;;;;;;;;;;;;;;;20.15;42.41;101404.06;5005890;28;20044;-75
2022/07/14 11:06:09;;;;;;;;;;;;;;;20.11;42.05;101402.53;5000905;28;19929;-78
2022/07/14 11:08:36;;;;;;;;;;;;;;;20.03;41.68;101405.50;5003339;28;19948;-79
2022/07/14 11:11:04;;;;;;;;;;;;;;;20.04;42.22;101409.88;4991138;28;19930;-78
2022/07/14 11:13:30;;;;;;;;;;;;;;;20.09;43.05;101407.00;4985303;28;20409;-79
2022/07/14 11:16:00;;;;;;;;;;;;;;;20.10;42.94;101406.97;4990975;28;19922;-78
2022/07/14 11:18:37;;;;;;;;;;;;;;;19.99;42.63;101403.13;5005155;28;20548;-79
2022/07/14 11:21:11;;;;;;;;;;;;;;;20.04;40.93;101403.72;5003537;28;19925;-78
2022/07/14 11:23:37;;;;;;;;;;;;;;;20.06;42.12;101415.03;5009416;28;19921;-78
2022/07/14 11:26:04;;;;;;;;;;;;;;;20.05;42.68;101408.94;5005774;28;19921;-79
2022/07/14 11:28:33;;;;;;;;;;;;;;;20.06;43.23;101408.00;5007414;28;19921;-79
2022/07/14 11:31:19;;;;;;;;;;;;;;;20.09;43.12;101407.00;5004389;28;19929;-78
2022/07/14 11:36:30;;;;;;;;;;;;;;;20.15;43.98;101415.47;5007935;28;21681;-78
2022/07/14 11:39:14;;;;;;;;;;;;;;;20.14;41.31;101410.28;5005207;28;19991;-79
2022/07/14 11:41:41;;;;;;;;;;;;;;;20.14;38.56;101407.66;5005203;28;20380;-79
2022/07/14 11:44:07;;;;;;;;;;;;;;;20.06;36.99;101396.59;5011452;28;19924;-78
2022/07/14 11:46:32;;;;;;;;;;;;;;;20.07;37.54;101400.94;5008871;28;20439;-78
2022/07/14 11:49:00;;;;;;;;;;;;;;;20.14;39.39;101403.25;5009760;28;19925;-78
2022/07/14 11:51:26;;;;;;;;;;;;;;;20.18;39.15;101398.63;5010467;28;19936;-79
2022/07/14 11:54:01;;;;;;;;;;;;;;;20.28;39.62;101395.47;5011991;28;20008;-79
2022/07/14 11:56:28;;;;;;;;;;;;;;;20.26;39.06;101402.59;5001407;28;20012;-78
2022/07/14 11:58:56;;;;;;;;;;;;;;;20.27;38.78;101403.44;5002480;28;19929;-79
2022/07/14 12:01:22;;;;;;;;;;;;;;;20.19;38.20;101403.84;5005822;28;20383;-79
2022/07/14 12:03:48;;;;;;;;;;;;;;;20.17;39.37;101399.59;5006533;28;19921;-78
2022/07/14 12:06:14;;;;;;;;;;;;;;;20.15;38.97;101397.00;5009141;28;20029;-78
2022/07/14 12:08:40;;;;;;;;;;;;;;;20.26;39.16;101396.47;5008726;28;20004;-79
2022/07/14 12:11:11;;;;;;;;;;;;;;;20.26;39.17;101401.75;5005547;28;19979;-79
2022/07/14 12:13:51;;;;;;;;;;;;;;;20.25;39.93;101405.31;5004803;28;19922;-79
2022/07/14 12:16:17;;;;;;;;;;;;;;;20.27;39.02;101392.91;5004917;28;20308;-76
2022/07/14 12:18:43;;;;;;;;;;;;;;;20.28;40.17;101390.19;5006845;28;19929;-76
2022/07/14 12:21:08;;;;;;;;;;;;;;;20.23;40.46;101391.38;5006550;28;20410;-76
2022/07/14 12:23:34;;;;;;;;;;;;;;;20.32;40.34;101389.09;5010518;28;20424;-75
2022/07/14 12:26:01;;;;;;;;;;;;;;;20.37;40.75;101391.50;5000526;28;19925;-77
2022/07/14 12:28:26;;;;;;;;;;;;;;;20.33;40.78;101387.31;5006382;28;19922;-77
2022/07/14 12:30:53;;;;;;;;;;;;;;;20.37;40.62;101380.94;5005472;28;19921;-78
2022/07/14 12:33:22;;;;;;;;;;;;;;;20.42;40.03;101389.47;5002913;28;19926;-78
2022/07/14 12:35:50;;;;;;;;;;;;;;;20.40;39.28;101372.00;5001747;28;20319;-78
2022/07/14 12:38:16;;;;;;;;;;;;;;;20.44;40.52;101377.03;5000744;28;19999;-78
2022/07/14 12:40:42;;;;;;;;;;;;;;;20.54;39.84;101372.13;5000545;28;19951;-78
2022/07/14 12:43:09;;;;;;;;;;;;;;;20.48;39.73;101370.69;5001230;28;20545;-78
2022/07/14 12:45:53;;;;;;;;;;;;;;;20.54;39.89;101380.06;4994318;28;19922;-78